createdAt,value
2019-03-29T00:00:08.659Z,9.03
2019-03-29T00:02:36.271Z,8.87
2019-03-29T00:05:04.010Z,8.67
2019-03-29T00:07:39.370Z,8.30
2019-03-29T00:10:01.661Z,8.70
2019-03-29T00:12:28.983Z,9.07
2019-03-29T00:14:56.258Z,8.47
2019-03-29T00:17:23.776Z,8.47
2019-03-29T00:19:51.183Z,8.23
2019-03-29T00:22:18.591Z,9.50
2019-03-29T00:24:46.015Z,8.40
2019-03-29T00:27:13.329Z,8.40
2019-03-29T00:29:40.795Z,9.50
2019-03-29T00:32:08.175Z,9.47
2019-03-29T00:34:35.692Z,8.93
2019-03-29T00:37:03.114Z,8.80
2019-03-29T00:39:30.643Z,8.57
2019-03-29T00:41:58.067Z,8.13
2019-03-29T00:44:26.206Z,8.80
2019-03-29T00:46:54.435Z,8.23
2019-03-29T00:49:21.827Z,8.50
2019-03-29T00:51:49.232Z,8.37
2019-03-29T00:54:16.811Z,9.40
2019-03-29T00:56:44.436Z,8.90
2019-03-29T00:59:11.863Z,8.43
2019-03-29T01:01:39.287Z,8.70
2019-03-29T01:04:06.700Z,10.17
2019-03-29T01:06:34.211Z,8.83
2019-03-29T01:09:01.721Z,8.90
2019-03-29T01:11:29.156Z,8.57
2019-03-29T01:13:56.734Z,9.37
2019-03-29T01:16:24.196Z,9.17
2019-03-29T01:18:51.579Z,10.10
2019-03-29T01:21:18.991Z,9.73
2019-03-29T01:23:46.593Z,9.80
2019-03-29T01:26:14.034Z,9.47
2019-03-29T01:28:41.471Z,9.90
2019-03-29T01:31:08.895Z,10.00
2019-03-29T01:33:36.585Z,8.97
2019-03-29T01:36:04.167Z,9.43
2019-03-29T01:38:31.642Z,9.07
2019-03-29T01:40:59.022Z,9.20
2019-03-29T01:43:26.494Z,9.30
2019-03-29T01:45:53.911Z,9.90
2019-03-29T01:48:22.362Z,9.80
2019-03-29T01:50:50.017Z,9.50
2019-03-29T01:53:17.415Z,8.83
2019-03-29T01:55:44.845Z,9.53
2019-03-29T01:58:12.271Z,9.77
2019-03-29T02:00:39.676Z,9.90
2019-03-29T02:03:07.236Z,9.20
2019-03-29T02:05:34.633Z,9.43
2019-03-29T02:08:02.259Z,9.53
2019-03-29T02:10:29.684Z,9.83
2019-03-29T02:12:57.125Z,9.07
2019-03-29T02:15:24.501Z,9.53
2019-03-29T02:17:52.047Z,9.50
2019-03-29T02:20:19.572Z,9.20
2019-03-29T02:22:46.961Z,9.37
2019-03-29T02:25:15.969Z,8.93
2019-03-29T02:27:43.639Z,9.53
2019-03-29T02:30:12.533Z,9.57
2019-03-29T02:32:39.884Z,10.13
2019-03-29T02:35:07.322Z,9.20
2019-03-29T02:37:34.822Z,9.53
2019-03-29T02:40:02.347Z,9.00
2019-03-29T02:42:29.623Z,9.50
2019-03-29T02:44:57.074Z,9.00
2019-03-29T02:47:24.527Z,9.13
2019-03-29T02:49:52.111Z,9.70
2019-03-29T02:52:19.614Z,10.23
2019-03-29T02:54:47.215Z,10.27
2019-03-29T02:57:15.600Z,10.90
2019-03-29T02:59:43.134Z,11.80
2019-03-29T03:02:10.531Z,10.73
2019-03-29T03:04:37.988Z,11.30
2019-03-29T03:07:05.540Z,11.30
2019-03-29T03:09:33.068Z,10.90
2019-03-29T03:12:00.920Z,9.47
2019-03-29T03:14:28.190Z,11.30
2019-03-29T03:16:55.631Z,10.43
2019-03-29T03:19:23.075Z,10.83
2019-03-29T03:21:50.649Z,10.30
2019-03-29T03:24:18.115Z,9.80
2019-03-29T03:26:45.492Z,9.83
2019-03-29T03:29:12.876Z,9.53
2019-03-29T03:31:40.164Z,9.50
2019-03-29T03:34:07.613Z,8.70
2019-03-29T03:36:35.003Z,8.50
2019-03-29T03:39:04.523Z,9.40
2019-03-29T03:41:32.109Z,8.80
2019-03-29T03:43:59.816Z,8.67
2019-03-29T03:46:27.353Z,9.60
2019-03-29T03:48:54.790Z,8.53
2019-03-29T03:51:22.311Z,8.90
2019-03-29T03:53:50.070Z,8.80
2019-03-29T03:56:19.709Z,10.23
2019-03-29T03:58:47.607Z,9.13
2019-03-29T04:01:14.989Z,10.13
2019-03-29T04:03:42.463Z,8.93
2019-03-29T04:06:09.907Z,8.50
2019-03-29T04:08:37.415Z,9.10
2019-03-29T04:11:04.725Z,9.07
2019-03-29T04:13:32.153Z,8.90
2019-03-29T04:15:59.640Z,9.67
2019-03-29T04:18:27.156Z,10.07
2019-03-29T04:20:54.654Z,9.37
2019-03-29T04:23:22.062Z,9.30
2019-03-29T04:25:49.332Z,9.50
2019-03-29T04:28:16.888Z,8.73
2019-03-29T04:30:44.412Z,8.97
2019-03-29T04:33:11.934Z,10.07
2019-03-29T04:35:39.351Z,10.23
2019-03-29T04:38:06.767Z,9.83
2019-03-29T04:40:34.323Z,8.93
2019-03-29T04:43:01.899Z,9.90
2019-03-29T04:45:29.217Z,9.37
2019-03-29T04:47:56.633Z,9.60
2019-03-29T04:50:24.079Z,10.00
2019-03-29T04:52:51.409Z,9.70
2019-03-29T04:55:18.823Z,9.93
2019-03-29T04:57:46.360Z,9.90
2019-03-29T05:00:14.040Z,9.73
2019-03-29T05:02:41.531Z,10.43
2019-03-29T05:05:09.068Z,9.83
2019-03-29T05:07:37.094Z,10.00
2019-03-29T05:10:05.253Z,10.03
2019-03-29T05:12:32.650Z,10.43
2019-03-29T05:15:00.104Z,9.80
2019-03-29T05:17:27.881Z,10.27
2019-03-29T05:19:55.355Z,10.27
2019-03-29T05:22:22.899Z,10.53
2019-03-29T05:24:50.427Z,10.60
2019-03-29T05:27:17.974Z,10.37
2019-03-29T05:29:45.273Z,11.07
2019-03-29T05:32:12.739Z,11.13
2019-03-29T05:34:40.158Z,10.27
2019-03-29T05:37:07.563Z,10.00
2019-03-29T05:39:34.967Z,9.87
2019-03-29T05:42:02.377Z,10.30
2019-03-29T05:44:29.806Z,11.27
2019-03-29T05:46:57.348Z,10.43
2019-03-29T05:49:24.763Z,10.77
2019-03-29T05:51:52.180Z,9.93
2019-03-29T05:54:19.449Z,10.97
2019-03-29T05:56:46.723Z,10.13
2019-03-29T05:59:14.177Z,10.17
2019-03-29T06:01:41.586Z,9.83
2019-03-29T06:04:09.223Z,9.90
2019-03-29T06:06:36.644Z,10.27
2019-03-29T06:09:05.658Z,9.97
2019-03-29T06:11:33.218Z,10.07
2019-03-29T06:14:00.619Z,10.60
2019-03-29T06:16:38.330Z,10.27
2019-03-29T06:18:57.315Z,9.17
2019-03-29T06:21:24.759Z,10.20
2019-03-29T06:23:52.255Z,8.60
2019-03-29T06:26:19.897Z,8.53
2019-03-29T06:28:47.303Z,8.33
2019-03-29T06:31:14.779Z,8.23
2019-03-29T06:33:44.606Z,8.57
2019-03-29T06:36:13.857Z,8.03
2019-03-29T06:38:42.719Z,8.17
2019-03-29T06:41:10.148Z,8.20
2019-03-29T06:43:37.559Z,8.58
2019-03-29T06:46:05.199Z,8.43
2019-03-29T06:48:32.609Z,8.73
2019-03-29T06:51:00.110Z,8.73
2019-03-29T06:53:27.751Z,8.83
2019-03-29T06:55:55.193Z,7.43
2019-03-29T06:58:22.495Z,7.53
2019-03-29T07:00:49.950Z,10.82
2019-03-29T07:03:17.383Z,9.08
2019-03-29T07:05:44.848Z,9.70
2019-03-29T07:08:12.135Z,9.23
2019-03-29T07:10:39.428Z,8.50
2019-03-29T07:13:06.955Z,10.35
2019-03-29T07:15:34.270Z,10.28
2019-03-29T07:18:01.824Z,9.30
2019-03-29T07:20:29.456Z,9.18
2019-03-29T07:22:57.075Z,9.23
2019-03-29T07:25:24.541Z,9.28
2019-03-29T07:27:52.399Z,9.85
2019-03-29T07:30:20.309Z,9.70
2019-03-29T07:32:47.706Z,9.33
2019-03-29T07:35:15.064Z,9.60
2019-03-29T07:37:42.371Z,9.75
2019-03-29T07:40:09.944Z,10.82
2019-03-29T07:42:37.409Z,10.88
2019-03-29T07:45:05.555Z,11.65
2019-03-29T07:47:32.974Z,10.28
2019-03-29T07:50:00.366Z,11.23
2019-03-29T07:52:27.795Z,12.55
2019-03-29T07:54:55.075Z,11.83
2019-03-29T07:57:22.654Z,11.00
2019-03-29T07:59:50.615Z,10.88
2019-03-29T08:02:18.327Z,10.80
2019-03-29T08:04:46.566Z,11.65
2019-03-29T08:07:26.625Z,11.48
2019-03-29T08:09:43.438Z,12.07
2019-03-29T08:12:10.746Z,10.63
2019-03-29T08:14:38.241Z,11.38
2019-03-29T08:17:05.553Z,11.53
2019-03-29T08:19:32.962Z,11.38
2019-03-29T08:22:00.232Z,11.80
2019-03-29T08:24:27.739Z,11.60
2019-03-29T08:26:55.209Z,10.72
2019-03-29T08:29:22.683Z,11.40
2019-03-29T08:31:50.076Z,11.22
2019-03-29T08:34:17.635Z,11.45
2019-03-29T08:36:44.964Z,10.90
2019-03-29T08:39:12.215Z,11.12
2019-03-29T08:41:39.635Z,11.15
2019-03-29T08:44:07.097Z,11.40
2019-03-29T08:46:34.611Z,11.65
2019-03-29T08:49:02.165Z,11.35
2019-03-29T08:51:29.669Z,11.57
2019-03-29T08:53:57.155Z,12.03
2019-03-29T08:56:24.708Z,12.27
2019-03-29T08:58:52.128Z,12.10
2019-03-29T09:01:19.903Z,12.47
2019-03-29T09:04:01.480Z,12.17
2019-03-29T09:06:16.851Z,12.07
2019-03-29T09:08:44.381Z,12.87
2019-03-29T09:11:11.687Z,11.23
2019-03-29T09:13:39.127Z,12.07
2019-03-29T09:16:06.567Z,11.60
2019-03-29T09:18:34.053Z,11.97
2019-03-29T09:21:01.486Z,12.10
2019-03-29T09:23:30.253Z,12.43
2019-03-29T09:25:57.891Z,11.70
2019-03-29T09:28:25.299Z,10.87
2019-03-29T09:30:56.201Z,11.10
2019-03-29T09:33:22.199Z,11.13
2019-03-29T09:35:49.725Z,11.30
2019-03-29T09:38:17.467Z,11.03
2019-03-29T09:40:53.504Z,10.67
2019-03-29T09:43:14.419Z,9.27
2019-03-29T09:45:41.739Z,8.23
2019-03-29T09:48:09.195Z,9.60
2019-03-29T09:50:36.708Z,10.43
2019-03-29T09:53:04.011Z,9.00
2019-03-29T09:55:31.634Z,9.37
2019-03-29T09:57:59.198Z,8.37
2019-03-29T10:00:26.574Z,7.93
2019-03-29T10:02:54.112Z,6.57
2019-03-29T10:05:21.632Z,5.20
2019-03-29T10:07:49.146Z,4.90
2019-03-29T10:10:16.907Z,5.50
2019-03-29T10:12:44.569Z,5.97
2019-03-29T10:15:12.667Z,5.13
2019-03-29T10:17:40.100Z,5.33
2019-03-29T10:20:08.209Z,5.20
2019-03-29T10:22:35.724Z,4.80
2019-03-29T10:25:18.300Z,5.67
2019-03-29T10:27:34.052Z,5.10
2019-03-29T10:30:01.590Z,4.50
2019-03-29T10:32:29.015Z,5.30
2019-03-29T10:34:56.460Z,4.50
2019-03-29T10:37:23.888Z,5.57
2019-03-29T10:39:51.439Z,5.53
2019-03-29T10:42:19.019Z,5.70
2019-03-29T10:44:49.243Z,5.70
2019-03-29T10:47:15.908Z,5.87
2019-03-29T10:49:43.238Z,5.63
2019-03-29T10:52:10.523Z,5.33
2019-03-29T10:54:37.887Z,5.53
2019-03-29T10:57:05.407Z,5.20
2019-03-29T10:59:32.869Z,4.60
2019-03-29T11:02:00.244Z,4.57
2019-03-29T11:04:27.623Z,5.27
2019-03-29T11:06:55.151Z,4.83
2019-03-29T11:09:22.976Z,4.80
2019-03-29T11:11:50.414Z,4.33
2019-03-29T11:14:17.719Z,3.73
2019-03-29T11:16:45.251Z,4.87
2019-03-29T11:19:12.624Z,4.70
2019-03-29T11:21:40.172Z,4.50
2019-03-29T11:24:09.346Z,4.13
2019-03-29T11:26:37.039Z,4.80
2019-03-29T11:29:04.533Z,4.27
2019-03-29T11:31:31.988Z,4.40
2019-03-29T11:33:59.497Z,4.03
2019-03-29T11:36:26.919Z,3.50
2019-03-29T11:38:54.509Z,2.90
2019-03-29T11:41:22.035Z,3.43
2019-03-29T11:43:49.442Z,3.33
2019-03-29T11:46:16.851Z,2.80
2019-03-29T11:48:44.395Z,2.87
2019-03-29T11:51:19.178Z,2.80
2019-03-29T11:53:41.126Z,3.00
2019-03-29T11:56:08.631Z,2.58
2019-03-29T11:58:36.144Z,2.60
2019-03-29T12:01:05.447Z,2.70
2019-03-29T12:03:33.048Z,2.37
2019-03-29T12:06:00.577Z,2.15
2019-03-29T12:08:28.140Z,2.10
2019-03-29T12:10:55.703Z,2.17
2019-03-29T12:13:23.211Z,2.35
2019-03-29T12:15:50.595Z,2.62
2019-03-29T12:18:18.259Z,2.08
2019-03-29T12:20:45.683Z,2.30
2019-03-29T12:23:12.993Z,2.37
2019-03-29T12:25:40.454Z,2.95
2019-03-29T12:28:08.182Z,2.40
2019-03-29T12:30:36.118Z,2.58
2019-03-29T12:33:03.634Z,2.17
2019-03-29T12:35:31.156Z,2.30
2019-03-29T12:37:58.686Z,2.20
2019-03-29T12:40:26.109Z,2.83
2019-03-29T12:42:53.632Z,2.62
2019-03-29T12:45:21.161Z,2.17
2019-03-29T12:47:48.599Z,3.02
2019-03-29T12:50:16.123Z,2.40
2019-03-29T12:52:43.691Z,2.37
2019-03-29T12:55:11.398Z,2.65
2019-03-29T12:57:39.392Z,2.47
2019-03-29T13:00:07.733Z,3.10
2019-03-29T13:02:35.215Z,2.87
2019-03-29T13:05:03.331Z,2.42
2019-03-29T13:07:30.903Z,2.60
2019-03-29T13:09:58.447Z,2.47
2019-03-29T13:12:25.842Z,2.90
2019-03-29T13:14:53.667Z,2.50
2019-03-29T13:17:21.350Z,2.70
2019-03-29T13:19:48.838Z,2.80
2019-03-29T13:22:16.527Z,3.40
2019-03-29T13:24:43.940Z,3.27
2019-03-29T13:27:11.391Z,3.70
2019-03-29T13:29:38.764Z,3.60
2019-03-29T13:32:06.307Z,3.55
2019-03-29T13:34:33.747Z,2.83
2019-03-29T13:37:01.048Z,3.80
2019-03-29T13:39:28.580Z,4.00
2019-03-29T13:41:55.834Z,3.70
2019-03-29T13:44:26.622Z,3.47
2019-03-29T13:46:52.867Z,4.07
2019-03-29T13:49:20.323Z,3.30
2019-03-29T13:51:47.863Z,3.97
2019-03-29T13:54:15.367Z,4.33
2019-03-29T13:56:42.929Z,5.23
2019-03-29T13:59:10.470Z,4.43
2019-03-29T14:01:37.742Z,3.77
2019-03-29T14:04:05.119Z,4.10
2019-03-29T14:06:32.526Z,3.93
2019-03-29T14:08:59.950Z,3.90
2019-03-29T14:11:27.392Z,3.90
2019-03-29T14:13:54.947Z,3.57
2019-03-29T14:16:22.352Z,3.77
2019-03-29T14:18:49.930Z,4.00
2019-03-29T14:21:17.219Z,3.63
2019-03-29T14:23:44.724Z,4.23
2019-03-29T14:26:12.399Z,3.57
2019-03-29T14:28:39.812Z,3.83
2019-03-29T14:31:07.129Z,3.40
2019-03-29T14:33:34.502Z,3.97
2019-03-29T14:36:01.901Z,2.80
2019-03-29T14:38:29.224Z,2.87
2019-03-29T14:40:56.724Z,3.60
2019-03-29T14:43:24.255Z,3.40
2019-03-29T14:45:51.603Z,3.87
2019-03-29T14:48:18.870Z,3.60
2019-03-29T14:50:46.304Z,3.17
2019-03-29T14:53:13.741Z,3.63
2019-03-29T14:55:41.291Z,3.13
2019-03-29T14:58:08.884Z,3.30
2019-03-29T15:00:38.372Z,3.57
2019-03-29T15:03:06.011Z,3.70
2019-03-29T15:05:33.535Z,2.83
2019-03-29T15:08:01.122Z,2.80
2019-03-29T15:10:28.851Z,2.70
2019-03-29T15:12:56.292Z,2.33
2019-03-29T15:15:23.796Z,2.47
2019-03-29T15:17:51.321Z,2.87
2019-03-29T15:20:18.818Z,2.87
2019-03-29T15:22:46.216Z,2.60
2019-03-29T15:25:13.728Z,2.80
2019-03-29T15:27:41.119Z,2.57
2019-03-29T15:30:09.073Z,2.37
2019-03-29T15:32:36.431Z,2.40
2019-03-29T15:35:04.089Z,2.23
2019-03-29T15:37:31.535Z,2.60
2019-03-29T15:39:59.147Z,2.10
2019-03-29T15:42:26.594Z,2.03
2019-03-29T15:44:53.992Z,3.20
2019-03-29T15:47:21.320Z,2.30
2019-03-29T15:49:55.701Z,2.67
2019-03-29T15:52:18.076Z,2.20
2019-03-29T15:54:45.507Z,2.10
2019-03-29T15:57:13.063Z,2.53
2019-03-29T15:59:40.455Z,2.00
2019-03-29T16:02:07.987Z,2.27
2019-03-29T16:04:35.630Z,2.10
2019-03-29T16:07:03.155Z,2.00
2019-03-29T16:09:30.598Z,2.30
2019-03-29T16:11:58.239Z,2.07
2019-03-29T16:14:25.772Z,2.20
2019-03-29T16:16:53.327Z,2.33
2019-03-29T16:19:20.864Z,2.37
2019-03-29T16:21:48.129Z,2.20
2019-03-29T16:24:15.694Z,2.07
2019-03-29T16:26:43.322Z,2.20
2019-03-29T16:29:10.856Z,2.57
2019-03-29T16:31:38.305Z,2.10
2019-03-29T16:34:05.979Z,2.07
2019-03-29T16:36:33.307Z,2.30
2019-03-29T16:39:00.735Z,2.10
2019-03-29T16:41:28.528Z,1.90
2019-03-29T16:43:59.562Z,2.00
2019-03-29T16:46:27.203Z,1.60
2019-03-29T16:48:54.668Z,1.87
2019-03-29T16:51:22.284Z,2.00
2019-03-29T16:53:49.804Z,2.20
2019-03-29T16:56:18.539Z,2.00
2019-03-29T16:58:46.235Z,2.03
2019-03-29T17:01:13.712Z,2.10
2019-03-29T17:03:42.367Z,2.20
2019-03-29T17:06:09.966Z,2.10
2019-03-29T17:08:37.507Z,2.07
2019-03-29T17:11:05.102Z,2.00
2019-03-29T17:13:32.508Z,2.10
2019-03-29T17:16:02.119Z,2.20
2019-03-29T17:18:29.855Z,2.47
2019-03-29T17:20:57.707Z,2.50
2019-03-29T17:23:25.272Z,4.20
2019-03-29T17:25:52.799Z,3.40
2019-03-29T17:28:20.135Z,2.87
2019-03-29T17:30:52.221Z,3.47
2019-03-29T17:33:22.307Z,10.07
2019-03-29T17:35:48.975Z,4.97
2019-03-29T17:38:16.362Z,3.50
2019-03-29T17:40:47.152Z,3.80
2019-03-29T17:43:14.682Z,3.90
2019-03-29T17:45:50.964Z,3.20
2019-03-29T17:48:18.412Z,3.47
2019-03-29T17:50:45.984Z,3.13
2019-03-29T17:53:13.418Z,3.30
2019-03-29T17:55:40.846Z,3.00
2019-03-29T17:58:08.407Z,3.47
2019-03-29T18:00:36.087Z,3.73
2019-03-29T18:03:03.622Z,3.57
2019-03-29T18:05:31.079Z,4.20
2019-03-29T18:07:58.605Z,4.77
2019-03-29T18:10:26.050Z,3.57
2019-03-29T18:12:53.449Z,2.93
2019-03-29T18:15:21.078Z,3.57
2019-03-29T18:17:48.647Z,4.30
2019-03-29T18:20:16.474Z,3.73
2019-03-29T18:22:43.945Z,3.20
2019-03-29T18:25:11.832Z,3.37
2019-03-29T18:27:39.301Z,3.60
2019-03-29T18:30:08.367Z,3.40
2019-03-29T18:32:36.547Z,3.73
2019-03-29T18:35:04.807Z,3.93
2019-03-29T18:37:33.118Z,4.53
2019-03-29T18:40:01.169Z,4.07
2019-03-29T18:42:28.598Z,3.63
2019-03-29T18:44:56.105Z,3.27
2019-03-29T18:47:23.651Z,3.70
2019-03-29T18:49:51.174Z,2.90
2019-03-29T18:52:18.630Z,3.80
2019-03-29T18:54:46.290Z,3.93
2019-03-29T18:57:15.759Z,4.03
2019-03-29T18:59:43.189Z,4.20
2019-03-29T19:02:10.832Z,4.37
2019-03-29T19:04:38.792Z,3.83
2019-03-29T19:07:06.313Z,4.20
2019-03-29T19:09:33.887Z,4.10
2019-03-29T19:12:01.284Z,4.10
2019-03-29T19:14:28.716Z,4.40
2019-03-29T19:16:59.082Z,4.27
2019-03-29T19:19:25.746Z,4.27
2019-03-29T19:21:53.238Z,3.97
2019-03-29T19:24:20.762Z,3.70
2019-03-29T19:26:48.074Z,4.03
2019-03-29T19:29:15.643Z,3.73
2019-03-29T19:31:43.179Z,3.90
2019-03-29T19:34:12.194Z,5.17
2019-03-29T19:36:39.855Z,4.60
2019-03-29T19:39:07.426Z,4.87
2019-03-29T19:41:35.054Z,5.40
2019-03-29T19:44:02.571Z,4.30
2019-03-29T19:46:29.972Z,4.90
2019-03-29T19:48:57.715Z,4.73
2019-03-29T19:51:25.203Z,4.93
2019-03-29T19:54:06.371Z,5.37
2019-03-29T19:56:22.195Z,6.60
2019-03-29T19:58:49.817Z,8.30
2019-03-29T20:01:17.612Z,11.20
2019-03-29T20:03:45.144Z,10.40
2019-03-29T20:06:12.812Z,7.73
2019-03-29T20:08:40.368Z,7.00
2019-03-29T20:11:07.910Z,8.53
2019-03-29T20:13:35.443Z,8.67
2019-03-29T20:16:02.810Z,11.80
2019-03-29T20:18:31.479Z,13.00
2019-03-29T20:20:59.114Z,10.33
2019-03-29T20:23:26.669Z,8.37
2019-03-29T20:25:53.927Z,7.70
2019-03-29T20:28:21.369Z,5.67
2019-03-29T20:30:48.791Z,4.87
2019-03-29T20:33:16.351Z,4.30
2019-03-29T20:35:43.659Z,4.87
2019-03-29T20:38:11.214Z,5.23
2019-03-29T20:40:38.689Z,4.87
2019-03-29T20:43:06.141Z,4.50
2019-03-29T20:45:33.615Z,4.33
2019-03-29T20:48:01.169Z,5.00
2019-03-29T20:50:28.617Z,4.90
2019-03-29T20:52:56.056Z,4.53
2019-03-29T20:55:23.631Z,4.93
2019-03-29T20:57:51.175Z,5.33
2019-03-29T21:00:19.258Z,5.30
2019-03-29T21:02:46.692Z,5.17
2019-03-29T21:05:14.332Z,5.17
2019-03-29T21:07:42.140Z,5.10
2019-03-29T21:10:09.827Z,5.70
2019-03-29T21:12:37.445Z,5.70
2019-03-29T21:15:05.664Z,5.70
2019-03-29T21:17:33.211Z,4.80
2019-03-29T21:20:00.521Z,5.13
2019-03-29T21:22:27.857Z,5.37
2019-03-29T21:24:55.247Z,5.47
2019-03-29T21:27:22.740Z,5.20
2019-03-29T21:29:50.285Z,6.00
2019-03-29T21:32:17.727Z,5.93
2019-03-29T21:34:45.207Z,6.27
2019-03-29T21:37:12.602Z,5.90
2019-03-29T21:39:40.044Z,7.83
2019-03-29T21:42:07.534Z,10.90
2019-03-29T21:44:35.939Z,11.37
2019-03-29T21:47:03.415Z,9.53
2019-03-29T21:49:30.835Z,8.10
2019-03-29T21:51:58.407Z,7.40
2019-03-29T21:54:25.799Z,6.10
2019-03-29T21:56:53.343Z,6.13
2019-03-29T21:59:25.224Z,6.97
2019-03-29T22:01:52.931Z,6.50
2019-03-29T22:04:20.463Z,6.40
2019-03-29T22:06:47.761Z,6.37
2019-03-29T22:09:15.250Z,6.43
2019-03-29T22:11:42.659Z,6.50
2019-03-29T22:14:10.216Z,5.80
2019-03-29T22:16:37.624Z,6.27
2019-03-29T22:19:05.213Z,6.70
2019-03-29T22:21:32.521Z,6.70
2019-03-29T22:23:59.997Z,6.80
2019-03-29T22:26:27.566Z,7.70
2019-03-29T22:28:55.003Z,7.60
2019-03-29T22:31:22.427Z,6.23
2019-03-29T22:33:49.942Z,7.03
2019-03-29T22:36:17.295Z,6.90
2019-03-29T22:38:44.862Z,6.83
2019-03-29T22:41:12.511Z,6.93
2019-03-29T22:43:39.935Z,6.87
2019-03-29T22:46:07.367Z,6.53
2019-03-29T22:48:36.374Z,6.73
2019-03-29T22:51:03.943Z,7.43
2019-03-29T22:53:32.960Z,7.80
2019-03-29T22:56:00.425Z,7.87
2019-03-29T22:58:28.652Z,7.50
2019-03-29T23:00:57.019Z,7.87
2019-03-29T23:03:24.555Z,8.47
2019-03-29T23:05:52.034Z,9.10
2019-03-29T23:08:19.558Z,10.17
2019-03-29T23:10:47.292Z,10.80
2019-03-29T23:13:14.774Z,10.33
2019-03-29T23:15:42.187Z,10.10
2019-03-29T23:18:09.570Z,9.10
2019-03-29T23:20:36.909Z,8.23
2019-03-29T23:23:04.294Z,9.23
2019-03-29T23:25:31.820Z,8.53
2019-03-29T23:27:59.133Z,8.67
2019-03-29T23:30:26.571Z,8.60
2019-03-29T23:32:53.977Z,8.40
2019-03-29T23:35:21.398Z,8.20
2019-03-29T23:37:48.698Z,8.87
2019-03-29T23:40:16.242Z,9.57
2019-03-29T23:42:43.596Z,9.07
2019-03-29T23:45:11.168Z,9.07
2019-03-29T23:47:38.714Z,9.10
2019-03-29T23:50:06.239Z,8.97
2019-03-29T23:52:33.679Z,9.27
2019-03-29T23:55:01.084Z,9.03
2019-03-29T23:57:28.631Z,10.87
2019-03-29T23:59:56.031Z,9.63
